Dauntless Aviation
Airports Europe United Kingdom
EGLC
LCY

London City

London, UNITED KINGDOM

Airport Info
Suggest Updated Information for this Airport

Location

Latitude / Longitude: 51°30'18"N / 0°3'12"E
  51°30.3'N / 0°3.21'E
  51.5050 / 0.0535

Nearby radio navigation aids

LCY CITY NDB on field.

Runway Information

Runway 10 /28

Dimensions: 4948 x 98 ft.
Surface: ASP
 
Runway 10
Runway 28
Latitude: 51.505528 51.504922
Longitude: 0.045753 0.064953
Elevation: 16 ft. 16 ft.
Runway true heading: 91.1 271.1
 

Instrument Procedures

  Control Zone and Control Area Chart
  Aircraft Parking/Docking Chart
  Aerodrome Chart

STARs (Standard Terminal Arrivals)

  STAR via SPEAR (Northwest)
  STAR via ALKIN (South)
  STAR via SPEAR (East)
  STAR via SPEAR (West)
  STAR via SPEAR (Alternate Holding at LOGAN and ALKIN)

IAPs (Instrument Approach Procedures)

  LOC/DME/NDB (L) Rwy 27 (Aircraft CAT A/B/C)
  Visual Approach Profile Rwy 27
  ILS (5.5°GP) /DME/NDB (L) Rwy 27 (Aircraft CAT A/B/C)
  Visual Approach Profile Rwy 09
  LOC/DME/NDB (L) Rwy 09
  ATC Surveillance Minimum Altitude Chart
  ILS (5.5°GP) /DME/NDB (L) Rwy 09 (Aircraft CAT A/B/C)

Departure Procedures

  SID DOVER/LYDD
  SID CLACTON
  SID SOUTHAMPTON
  SID BROOKMANS PARK/COMPTON
Satellite photo at:
Airport distance calculator
From:
Weather Reports

METAR

EGLC

EGLC 312120Z AUTO 35010KT 300V020 9999 BKN007/// 13/11 Q1019
EGWU
17.8nm W
EGWU 312050Z AUTO 01011KT 9999 // OVC006/// 12/11 Q1019
EGLL
18.9nm SW
EGLL 312120Z AUTO 36007KT 310V040 7000 OVC005 12/11 Q1020 TEMPO 4000 BR BKN004
EGSS
23.5nm N
EGSS 312120Z AUTO 36016KT 6000 OVC003 11/10 Q1019
EGKK
23.8nm S
EGKK 312120Z 36007KT 320V030 9999 BKN007 12/11 Q1019
EGMC
24.4nm NE
EGMC 312120Z 35013KT 9000 OVC005 11/10 Q1018

TAF

EGLC
TAF EGLC 311701Z 3118/3121 36015KT 9999 OVC007 BECMG 3118/3121 8000 OVC003 PROB30 TEMPO 3118/3121 3000 DZ
EGWU
17.8nm W
TAF EGWU 311657Z 3118/0112 36016G30KT 9999 BKN008 OVC012 BECMG 3118/3120 35012KT BKN006 TEMPO 3120/0112 4000 RADZ BKN004
EGLL
18.9nm SW
TAF EGLL 311659Z 3118/0124 36011KT 9999 SCT011 BKN014 TEMPO 3118/3120 BKN009 PROB40 TEMPO 3119/0108 4000 -DZ BR SCT002 BKN004 BECMG 3120/3122 8000 BKN009 BECMG 0106/0109 9999 TEMPO 0109/0118 BKN015 PROB30 TEMPO 0117/0124 5000 -DZ BKN004
EGSS
23.5nm N
TAF AMD EGSS 312114Z 3121/0124 35015KT 7000 OVC003 BECMG 3121/3124 0300 FG OVC001 PROB40 TEMPO 0100/0109 0800 DZ OVC002 BECMG 0109/0112 5000 BR OVC003 PROB40 TEMPO 0109/0124 1400 DZ BECMG 0118/0121 0300 FG OVC001
EGKK
23.8nm S
TAF EGKK 311659Z 3118/0124 35012KT 9999 BKN014 BECMG 3118/3121 8000 BKN008 TEMPO 3118/0109 3000 BR DZ BKN003 PROB30 TEMPO 3121/0109 1200 BECMG 0109/0112 9999 PROB30 TEMPO 0110/0118 BKN015 TEMPO 0118/0124 4000 BR BKN004
EGMC
24.4nm NE
TAF EGMC 312000Z 3121/0106 35015KT 5000 BR OVC005 TEMPO 3121/0106 2000 DZ OVC004 PROB30 3121/0106 1200 BR OVC001
Safelog

 

Dauntless Aviation

© 2007-2016 Dauntless Aviation, all rights reserved
Information provided via PilotNav comes from a variety of official and unofficial data sources. As errors are possible, do not use PilotNav for primary flight planning purposes. Verify any information that you receive via PilotNav with current and canonical charts and other official documents. The material in this database is subject to database copyrights held by Dauntless Aviation and may not be copied without the express permission of Dauntless Aviation - licenses for use of part of all of this data are available for purchase; enquire via the Dauntless Aviation helpdesk. A number of mechanisms and markers exist in the database to protect against and identify infringement / copyright. Automated queries against this website are stictly prohibited, and all activity is logged and analyzed.